Time;durP1;ratioP1;P1;durP2;ratioP2;P2;SDS_P1;SDS_P2;PMS_P1;PMS_P2;Temp;Humidity;BMP_temperature;BMP_pressure;BME280_temperature;BME280_humidity;BME280_pressure;Samples;Min_cycle;Max_cycle;Signal;HPM_P1;HPM_P2
2023/10/11 00:02:32;;;;;;;;;;;22.50;60.40;;;;;;1535772;75;877;-67
2023/10/11 00:04:33;;;;;;;;;;;22.50;60.40;;;;;;1544493;75;722;-67
2023/10/11 00:06:35;;;;;;;;;;;22.50;60.40;;;;;;1545143;75;1945;-66
2023/10/11 00:08:42;;;;;;;;;;;22.40;60.30;;;;;;1537076;75;665;-66
2023/10/11 00:10:53;;;;;;;;;;;22.40;60.40;;;;;;1545814;74;1564;-66
2023/10/11 00:12:58;;;;;;;;;;;22.40;60.30;;;;;;1534153;75;1629;-71
2023/10/11 00:14:57;;;;;;;;;;;22.40;60.40;;;;;;1538344;75;1554;-68
2023/10/11 00:16:59;;;;;;;;;;;22.50;60.60;;;;;;1530221;75;771;-67
2023/10/11 00:19:01;;;;;;;;;;;22.50;60.40;;;;;;1545751;75;752;-67
2023/10/11 00:21:15;;;;;;;;;;;22.50;60.50;;;;;;1551128;74;1185;-71
2023/10/11 00:23:07;;;;;;;;;;;22.50;60.40;;;;;;1538212;75;1521;-66
2023/10/11 00:25:12;;;;;;;;;;;22.40;60.40;;;;;;1544166;75;1931;-66
2023/10/11 00:27:13;;;;;;;;;;;22.50;60.50;;;;;;1547403;75;1599;-67
2023/10/11 00:29:15;;;;;;;;;;;22.40;60.50;;;;;;1539030;75;741;-68
2023/10/11 00:31:18;;;;;;;;;;;22.50;60.60;;;;;;1541694;75;1176;-68
2023/10/11 00:33:21;;;;;;;;;;;22.40;60.40;;;;;;1554757;75;922;-66
2023/10/11 00:35:26;;;;;;;;;;;22.40;60.50;;;;;;1533875;75;663;-67
2023/10/11 00:37:29;;;;;;;;;;;22.50;60.60;;;;;;1538623;75;757;-69
2023/10/11 00:39:33;;;;;;;;;;;22.50;60.60;;;;;;1538427;75;1554;-68
2023/10/11 00:41:39;;;;;;;;;;;22.50;60.50;;;;;;1535148;75;1119;-68
2023/10/11 00:43:39;;;;;;;;;;;22.40;60.50;;;;;;1537995;75;1630;-70
2023/10/11 00:45:41;;;;;;;;;;;22.50;60.50;;;;;;1543747;75;1941;-66
2023/10/11 00:47:45;;;;;;;;;;;22.40;60.50;;;;;;1546968;75;929;-66
2023/10/11 00:49:50;;;;;;;;;;;22.50;60.60;;;;;;1545879;75;1146;-67
2023/10/11 00:51:50;;;;;;;;;;;22.50;60.50;;;;;;1551192;75;1720;-67
2023/10/11 00:53:53;;;;;;;;;;;22.50;60.60;;;;;;1545659;75;1572;-66
2023/10/11 00:55:59;;;;;;;;;;;22.50;60.60;;;;;;1543015;75;725;-67
2023/10/11 00:57:58;;;;;;;;;;;22.50;60.60;;;;;;1543996;75;1265;-67
2023/10/11 01:00:00;;;;;;;;;;;22.50;60.50;;;;;;1543524;75;1118;-66
2023/10/11 01:02:04;;;;;;;;;;;22.40;60.40;;;;;;1545111;75;714;-66
2023/10/11 01:04:06;;;;;;;;;;;22.40;60.50;;;;;;1542929;75;826;-66
2023/10/11 01:06:12;;;;;;;;;;;22.40;60.50;;;;;;1545399;75;1904;-69
2023/10/11 01:08:14;;;;;;;;;;;22.40;60.50;;;;;;1545105;75;1583;-69
2023/10/11 01:10:16;;;;;;;;;;;22.50;60.70;;;;;;1544291;75;1149;-67
2023/10/11 01:12:18;;;;;;;;;;;22.50;60.70;;;;;;1544448;75;730;-65
2023/10/11 01:14:23;;;;;;;;;;;22.50;60.70;;;;;;1548663;75;692;-65
2023/10/11 01:16:26;;;;;;;;;;;22.50;60.70;;;;;;1543156;75;1716;-65
2023/10/11 01:18:27;;;;;;;;;;;22.50;60.60;;;;;;1543521;75;1678;-66
2023/10/11 01:20:31;;;;;;;;;;;22.50;60.60;;;;;;1539437;75;1356;-68
2023/10/11 01:22:34;;;;;;;;;;;22.50;60.60;;;;;;1542681;75;2010;-68
2023/10/11 01:24:38;;;;;;;;;;;22.40;60.40;;;;;;1536532;75;714;-66
2023/10/11 01:26:41;;;;;;;;;;;22.40;60.40;;;;;;1547437;75;1916;-66
2023/10/11 01:28:48;;;;;;;;;;;22.50;60.60;;;;;;1557361;75;850;-67
2023/10/11 01:30:51;;;;;;;;;;;22.40;60.40;;;;;;1545536;75;1202;-66
2023/10/11 01:32:55;;;;;;;;;;;22.50;60.50;;;;;;1547821;75;689;-66
2023/10/11 01:34:56;;;;;;;;;;;22.40;60.40;;;;;;1546274;75;1532;-67
2023/10/11 01:36:59;;;;;;;;;;;22.40;60.40;;;;;;1544659;75;751;-68
2023/10/11 01:39:06;;;;;;;;;;;22.50;60.40;;;;;;1547989;75;816;-66
2023/10/11 01:41:06;;;;;;;;;;;22.50;60.40;;;;;;1531020;75;1708;-67
2023/10/11 01:43:07;;;;;;;;;;;22.40;60.40;;;;;;1530842;75;689;-66
2023/10/11 01:45:10;;;;;;;;;;;22.50;60.40;;;;;;1542031;75;692;-71
2023/10/11 01:47:12;;;;;;;;;;;22.40;60.40;;;;;;1537714;75;1933;-70
2023/10/11 01:49:14;;;;;;;;;;;22.40;60.40;;;;;;1546744;75;1563;-65
2023/10/11 01:51:23;;;;;;;;;;;22.50;60.40;;;;;;1539670;75;1086;-66
2023/10/11 01:53:20;;;;;;;;;;;22.50;60.40;;;;;;1538755;75;1526;-66
2023/10/11 01:55:22;;;;;;;;;;;22.50;60.50;;;;;;1542468;75;758;-66
2023/10/11 01:57:29;;;;;;;;;;;22.50;60.40;;;;;;1547859;75;686;-67
2023/10/11 01:59:28;;;;;;;;;;;22.50;60.40;;;;;;1534010;75;1627;-67
2023/10/11 02:01:38;;;;;;;;;;;22.50;60.40;;;;;;1533286;75;1122;-66
2023/10/11 02:03:33;;;;;;;;;;;22.50;60.40;;;;;;1534787;75;1622;-67
2023/10/11 02:05:35;;;;;;;;;;;22.50;60.30;;;;;;1538189;75;1939;-68
2023/10/11 02:07:39;;;;;;;;;;;22.50;60.40;;;;;;1540814;75;758;-67
2023/10/11 02:09:43;;;;;;;;;;;22.50;60.30;;;;;;1552103;75;1499;-69
2023/10/11 02:11:45;;;;;;;;;;;22.50;60.40;;;;;;1541436;75;1683;-70
2023/10/11 02:13:49;;;;;;;;;;;22.50;60.30;;;;;;1546046;75;669;-67
2023/10/11 02:15:51;;;;;;;;;;;22.30;60.20;;;;;;1543267;75;1982;-67
2023/10/11 02:17:52;;;;;;;;;;;22.50;60.30;;;;;;1541914;75;1549;-68
2023/10/11 02:19:54;;;;;;;;;;;22.50;60.30;;;;;;1537280;75;1117;-67
2023/10/11 02:21:56;;;;;;;;;;;22.50;60.40;;;;;;1542783;75;696;-67
2023/10/11 02:23:59;;;;;;;;;;;22.40;60.20;;;;;;1546948;75;823;-68
2023/10/11 02:26:00;;;;;;;;;;;22.40;60.20;;;;;;1541393;75;1916;-66
2023/10/11 02:28:07;;;;;;;;;;;22.40;60.30;;;;;;1536421;75;722;-66
2023/10/11 02:30:07;;;;;;;;;;;22.40;60.20;;;;;;1539981;75;1596;-67
2023/10/11 02:32:09;;;;;;;;;;;22.50;60.30;;;;;;1542385;75;1516;-66
2023/10/11 02:34:14;;;;;;;;;;;22.40;60.30;;;;;;1545436;75;894;-68
2023/10/11 02:36:18;;;;;;;;;;;22.40;60.20;;;;;;1541542;75;705;-67
2023/10/11 02:38:23;;;;;;;;;;;22.40;60.30;;;;;;1545541;75;742;-67
2023/10/11 02:40:25;;;;;;;;;;;22.40;60.20;;;;;;1531129;75;1160;-70
2023/10/11 02:42:27;;;;;;;;;;;22.40;60.30;;;;;;1537707;75;759;-66
2023/10/11 02:44:30;;;;;;;;;;;22.50;60.40;;;;;;1542420;75;764;-67
2023/10/11 02:46:33;;;;;;;;;;;22.40;60.30;;;;;;1545937;75;1934;-67
2023/10/11 02:48:35;;;;;;;;;;;22.40;60.20;;;;;;1543467;75;705;-66
2023/10/11 02:50:37;;;;;;;;;;;22.40;60.30;;;;;;1543776;75;1111;-67
2023/10/11 02:52:41;;;;;;;;;;;22.40;60.20;;;;;;1543208;75;735;-68
2023/10/11 02:54:42;;;;;;;;;;;22.40;60.20;;;;;;1545430;75;759;-67
2023/10/11 02:56:47;;;;;;;;;;;22.40;60.20;;;;;;1546709;74;801;-67
2023/10/11 02:58:49;;;;;;;;;;;22.50;60.30;;;;;;1548234;75;779;-68
2023/10/11 03:00:57;;;;;;;;;;;22.50;60.30;;;;;;1538621;75;2544;-67
2023/10/11 03:02:55;;;;;;;;;;;22.40;60.30;;;;;;1532279;75;1583;-68
2023/10/11 03:05:01;;;;;;;;;;;22.40;60.20;;;;;;1538051;75;749;-65
2023/10/11 03:07:00;;;;;;;;;;;22.40;60.20;;;;;;1539011;75;1917;-67
2023/10/11 03:09:03;;;;;;;;;;;22.40;60.30;;;;;;1543359;75;746;-68
2023/10/11 03:11:05;;;;;;;;;;;22.40;60.40;;;;;;1545289;75;1146;-67
2023/10/11 03:13:07;;;;;;;;;;;22.40;60.30;;;;;;1537657;75;1245;-66
2023/10/11 03:15:11;;;;;;;;;;;22.40;60.40;;;;;;1552712;75;819;-68
2023/10/11 03:17:20;;;;;;;;;;;22.40;60.40;;;;;;1544208;75;1514;-68
2023/10/11 03:19:16;;;;;;;;;;;22.40;60.40;;;;;;1540976;75;1541;-68
2023/10/11 03:21:22;;;;;;;;;;;22.40;60.40;;;;;;1537735;75;1151;-69
2023/10/11 03:23:25;;;;;;;;;;;22.40;60.40;;;;;;1541443;75;1600;-70
2023/10/11 03:25:27;;;;;;;;;;;22.50;60.50;;;;;;1537972;75;1652;-70
2023/10/11 03:27:36;;;;;;;;;;;22.40;60.40;;;;;;1535701;75;1936;-67
2023/10/11 03:29:32;;;;;;;;;;;22.40;60.40;;;;;;1548980;75;1702;-66
2023/10/11 03:31:39;;;;;;;;;;;22.40;60.40;;;;;;1540832;75;1143;-71
2023/10/11 03:33:40;;;;;;;;;;;22.40;60.40;;;;;;1542057;75;1667;-70
2023/10/11 03:35:44;;;;;;;;;;;22.40;60.40;;;;;;1540894;75;710;-67
2023/10/11 03:38:17;;;;;;;;;;;22.40;60.40;;;;;;1541177;75;1467;-67
2023/10/11 03:39:58;;;;;;;;;;;22.40;60.40;;;;;;1541777;75;1430;-67
2023/10/11 03:42:14;;;;;;;;;;;22.40;60.40;;;;;;1546697;75;1568;-66
2023/10/11 03:44:20;;;;;;;;;;;22.40;60.40;;;;;;1541974;75;1666;-66
2023/10/11 03:46:28;;;;;;;;;;;22.40;60.40;;;;;;1543486;75;1912;-66
2023/10/11 03:48:44;;;;;;;;;;;22.40;60.40;;;;;;1532372;75;1568;-65
2023/10/11 03:50:35;;;;;;;;;;;22.40;60.40;;;;;;1538767;75;1623;-66
2023/10/11 03:52:40;;;;;;;;;;;22.40;60.40;;;;;;1545399;75;739;-66
2023/10/11 03:54:41;;;;;;;;;;;22.40;60.40;;;;;;1545106;75;1673;-68
2023/10/11 03:56:50;;;;;;;;;;;22.40;60.40;;;;;;1545380;75;1676;-65
2023/10/11 03:58:50;;;;;;;;;;;22.40;60.40;;;;;;1542513;75;1460;-66
2023/10/11 04:00:50;;;;;;;;;;;22.40;60.40;;;;;;1535153;75;1678;-68
2023/10/11 04:03:02;;;;;;;;;;;22.40;60.40;;;;;;1541415;75;897;-68
2023/10/11 04:05:03;;;;;;;;;;;22.40;60.40;;;;;;1537012;75;1709;-67
2023/10/11 04:07:05;;;;;;;;;;;22.40;60.50;;;;;;1536096;75;1917;-70
2023/10/11 04:09:21;;;;;;;;;;;22.50;60.60;;;;;;1545526;75;734;-68
2023/10/11 04:11:30;;;;;;;;;;;22.40;60.50;;;;;;1550991;75;1824;-68
2023/10/11 04:13:26;;;;;;;;;;;22.40;60.50;;;;;;1538154;75;1747;-68
2023/10/11 04:15:30;;;;;;;;;;;22.50;60.30;;;;;;1547169;75;765;-68
2023/10/11 04:17:38;;;;;;;;;;;22.50;60.60;;;;;;1539857;75;1683;-68
2023/10/11 04:19:40;;;;;;;;;;;22.50;60.60;;;;;;1539721;75;1526;-65
2023/10/11 04:22:12;;;;;;;;;;;22.50;60.60;;;;;;1540630;75;1701;-64
2023/10/11 04:23:48;;;;;;;;;;;22.50;60.60;;;;;;1536897;75;1571;-63
2023/10/11 04:25:50;;;;;;;;;;;22.40;60.50;;;;;;1551625;75;714;-63
2023/10/11 04:27:56;;;;;;;;;;;22.40;60.70;;;;;;1542135;75;1931;-64
2023/10/11 04:29:58;;;;;;;;;;;22.50;60.80;;;;;;1538480;75;1270;-64
2023/10/11 04:32:19;;;;;;;;;;;22.50;60.70;;;;;;1543130;75;715;-65
2023/10/11 04:34:23;;;;;;;;;;;22.50;60.60;;;;;;1540570;75;1541;-64
2023/10/11 04:36:22;;;;;;;;;;;22.50;60.80;;;;;;1544761;75;1656;-64
2023/10/11 04:38:24;;;;;;;;;;;22.50;60.80;;;;;;1547462;75;1523;-65
2023/10/11 04:40:39;;;;;;;;;;;22.50;60.70;;;;;;1546410;75;1151;-65
2023/10/11 04:42:39;;;;;;;;;;;22.50;60.70;;;;;;1545077;75;1507;-64
2023/10/11 04:44:47;;;;;;;;;;;22.50;60.70;;;;;;1543905;75;820;-64
2023/10/11 04:46:57;;;;;;;;;;;22.50;60.70;;;;;;1548514;75;1932;-61
2023/10/11 04:48:52;;;;;;;;;;;22.50;60.70;;;;;;1542194;75;1684;-62
2023/10/11 04:50:55;;;;;;;;;;;22.50;60.60;;;;;;1542072;75;1119;-63
2023/10/11 04:52:58;;;;;;;;;;;22.50;60.60;;;;;;1543712;75;1555;-62
2023/10/11 04:55:10;;;;;;;;;;;22.40;60.50;;;;;;1548893;75;761;-63
2023/10/11 04:57:17;;;;;;;;;;;22.40;60.40;;;;;;1546264;75;1745;-63
2023/10/11 05:04:01;;;;;;;;;;;22.40;60.40;;;;;;1542314;75;800;-63
2023/10/11 05:06:13;;;;;;;;;;;22.40;60.40;;;;;;1543550;75;1517;-63
2023/10/11 05:08:20;;;;;;;;;;;22.50;60.20;;;;;;1541883;75;1925;-63
2023/10/11 05:10:32;;;;;;;;;;;22.50;60.30;;;;;;1544115;75;1472;-63
2023/10/11 05:12:41;;;;;;;;;;;22.50;60.30;;;;;;1534617;75;1647;-63
2023/10/11 05:14:39;;;;;;;;;;;22.40;60.20;;;;;;1544791;75;1607;-63
2023/10/11 05:16:44;;;;;;;;;;;22.50;60.30;;;;;;1542751;75;1595;-63
2023/10/11 05:18:44;;;;;;;;;;;22.50;60.20;;;;;;1543756;75;2063;-64
2023/10/11 05:20:57;;;;;;;;;;;22.40;60.10;;;;;;1542452;75;1531;-63
2023/10/11 05:22:52;;;;;;;;;;;22.40;60.10;;;;;;1541335;75;1682;-63
2023/10/11 05:27:09;;;;;;;;;;;22.40;60.10;;;;;;1546417;75;1913;-63
2023/10/11 05:29:12;;;;;;;;;;;22.40;60.00;;;;;;1550596;75;1777;-62
2023/10/11 05:33:41;;;;;;;;;;;22.50;60.10;;;;;;1540898;75;853;-66
2023/10/11 05:35:24;;;;;;;;;;;22.40;60.00;;;;;;1543222;75;1499;-63
2023/10/11 05:51:26;;;;;;;;;;;22.40;59.80;;;;;;1543649;75;1653;-66
2023/10/11 05:53:28;;;;;;;;;;;22.40;59.80;;;;;;1534559;75;1502;-65
2023/10/11 05:55:30;;;;;;;;;;;22.40;59.80;;;;;;1542156;75;727;-62
2023/10/11 05:57:32;;;;;;;;;;;22.40;59.80;;;;;;1546218;75;734;-63
2023/10/11 05:59:37;;;;;;;;;;;22.40;59.80;;;;;;1541908;75;753;-64
2023/10/11 06:01:38;;;;;;;;;;;22.40;57.90;;;;;;1542611;75;1115;-65
2023/10/11 06:03:41;;;;;;;;;;;22.40;57.10;;;;;;1542793;75;1744;-63
2023/10/11 06:05:43;;;;;;;;;;;22.30;56.20;;;;;;1543940;75;722;-64
2023/10/11 06:07:45;;;;;;;;;;;22.20;55.70;;;;;;1544336;75;1951;-63
2023/10/11 06:10:06;;;;;;;;;;;22.20;55.50;;;;;;1539999;75;1694;-62
2023/10/11 06:11:52;;;;;;;;;;;22.20;55.30;;;;;;1532869;75;1426;-64
2023/10/11 06:13:54;;;;;;;;;;;22.10;55.30;;;;;;1542502;75;680;-64
2023/10/11 06:16:07;;;;;;;;;;;22.10;55.10;;;;;;1545014;75;1519;-63
2023/10/11 06:18:01;;;;;;;;;;;22.10;55.00;;;;;;1536619;75;1482;-63
2023/10/11 06:22:28;;;;;;;;;;;22.10;54.90;;;;;;1547123;75;691;-67
2023/10/11 06:24:30;;;;;;;;;;;22.10;54.80;;;;;;1542136;75;1607;-65
2023/10/11 06:28:39;;;;;;;;;;;22.00;54.60;;;;;;1534404;75;1895;-64
2023/10/11 06:30:47;;;;;;;;;;;22.00;54.40;;;;;;1550357;74;1688;-65
2023/10/11 06:32:52;;;;;;;;;;;22.00;54.40;;;;;;1543065;75;726;-65
2023/10/11 06:34:54;;;;;;;;;;;22.00;54.40;;;;;;1552204;75;721;-66
2023/10/11 06:36:57;;;;;;;;;;;21.90;54.30;;;;;;1540488;75;756;-66
2023/10/11 06:38:59;;;;;;;;;;;22.00;54.20;;;;;;1546060;75;723;-66
2023/10/11 06:43:21;;;;;;;;;;;21.90;54.00;;;;;;1535032;75;1636;-65
2023/10/11 06:45:28;;;;;;;;;;;22.00;53.80;;;;;;1545464;75;1644;-67
2023/10/11 06:47:27;;;;;;;;;;;21.90;53.70;;;;;;1539750;75;1948;-66
2023/10/11 06:49:32;;;;;;;;;;;21.90;53.80;;;;;;1544084;75;688;-68
2023/10/11 06:51:33;;;;;;;;;;;21.90;53.80;;;;;;1545769;75;1755;-65
2023/10/11 06:53:36;;;;;;;;;;;21.90;53.70;;;;;;1534274;75;720;-66
2023/10/11 06:56:16;;;;;;;;;;;21.90;53.60;;;;;;1551854;75;783;-65
2023/10/11 06:57:54;;;;;;;;;;;21.80;53.50;;;;;;1537053;75;1473;-65
2023/10/11 06:59:59;;;;;;;;;;;21.80;53.40;;;;;;1541471;75;1495;-66
2023/10/11 07:02:01;;;;;;;;;;;21.80;53.50;;;;;;1543681;75;925;-65
2023/10/11 07:04:03;;;;;;;;;;;21.80;53.40;;;;;;1543891;75;800;-65
2023/10/11 07:06:12;;;;;;;;;;;21.90;53.40;;;;;;1533406;75;783;-65
2023/10/11 07:08:31;;;;;;;;;;;21.90;53.50;;;;;;1542690;75;1916;-65
2023/10/11 07:12:39;;;;;;;;;;;21.90;53.40;;;;;;1476550;76;1516;-66
2023/10/11 07:14:35;;;;;;;;;;;21.80;53.40;;;;;;1539613;75;1747;-65
2023/10/11 07:16:37;;;;;;;;;;;21.80;53.40;;;;;;1539418;75;844;-65
2023/10/11 07:18:43;;;;;;;;;;;21.80;53.30;;;;;;1550092;75;711;-65
2023/10/11 07:20:48;;;;;;;;;;;21.80;53.40;;;;;;1542290;75;1827;-65
2023/10/11 07:22:50;;;;;;;;;;;21.80;53.30;;;;;;1541828;75;694;-67
2023/10/11 07:24:56;;;;;;;;;;;21.90;53.60;;;;;;1545630;75;728;-64
2023/10/11 07:26:57;;;;;;;;;;;21.90;53.40;;;;;;1539687;75;1552;-67
2023/10/11 07:29:00;;;;;;;;;;;21.80;53.40;;;;;;1539962;75;1912;-65
2023/10/11 07:31:03;;;;;;;;;;;21.80;53.30;;;;;;1529552;75;1116;-64
2023/10/11 07:33:05;;;;;;;;;;;21.80;53.30;;;;;;1541069;75;685;-64
2023/10/11 07:35:17;;;;;;;;;;;21.80;53.40;;;;;;1537112;75;663;-65
2023/10/11 07:37:12;;;;;;;;;;;21.80;53.40;;;;;;1531986;75;1682;-64
2023/10/11 07:39:25;;;;;;;;;;;21.80;53.60;;;;;;1541972;75;720;-65
2023/10/11 07:41:27;;;;;;;;;;;21.80;53.40;;;;;;1540861;75;1642;-64
2023/10/11 07:43:32;;;;;;;;;;;21.80;53.60;;;;;;1544470;75;1634;-64
2023/10/11 07:45:31;;;;;;;;;;;21.80;53.60;;;;;;1549115;75;1711;-65
2023/10/11 07:47:34;;;;;;;;;;;21.80;53.60;;;;;;1542228;75;1948;-64
2023/10/11 07:49:38;;;;;;;;;;;21.80;53.60;;;;;;1529940;75;897;-64
2023/10/11 07:51:40;;;;;;;;;;;21.90;53.80;;;;;;1545401;75;1134;-66
2023/10/11 07:53:47;;;;;;;;;;;21.90;53.60;;;;;;1543814;75;772;-66
2023/10/11 07:55:46;;;;;;;;;;;21.90;53.70;;;;;;1542819;75;1582;-65
2023/10/11 07:57:48;;;;;;;;;;;22.00;53.50;;;;;;1538744;75;782;-64
2023/10/11 07:59:51;;;;;;;;;;;22.00;53.50;;;;;;1531252;75;1251;-64
2023/10/11 08:01:56;;;;;;;;;;;21.90;53.40;;;;;;1546539;75;721;-65
2023/10/11 08:03:58;;;;;;;;;;;22.00;53.60;;;;;;1540090;75;686;-66
2023/10/11 08:06:00;;;;;;;;;;;22.10;53.40;;;;;;1530944;75;697;-65
2023/10/11 08:08:05;;;;;;;;;;;22.10;53.30;;;;;;1547654;75;1925;-64
2023/10/11 08:12:27;;;;;;;;;;;22.20;53.30;;;;;;1544177;75;729;-65
2023/10/11 08:14:29;;;;;;;;;;;22.20;53.30;;;;;;1532081;75;758;-65
2023/10/11 08:16:33;;;;;;;;;;;22.20;53.30;;;;;;1542342;75;737;-65
2023/10/11 08:18:35;;;;;;;;;;;22.20;53.40;;;;;;1534620;75;732;-65
2023/10/11 08:20:37;;;;;;;;;;;22.30;53.40;;;;;;1540190;75;1182;-65
2023/10/11 08:22:38;;;;;;;;;;;22.30;53.40;;;;;;1542888;75;1551;-66
2023/10/11 08:24:56;;;;;;;;;;;22.30;53.40;;;;;;1536629;75;678;-63
2023/10/11 08:27:05;;;;;;;;;;;22.40;53.30;;;;;;1546884;75;1585;-65
2023/10/11 08:29:05;;;;;;;;;;;22.30;53.40;;;;;;1543279;75;1929;-65
2023/10/11 08:31:02;;;;;;;;;;;22.40;53.40;;;;;;1545751;75;1761;-65
2023/10/11 08:33:04;;;;;;;;;;;22.40;53.60;;;;;;1544841;75;749;-66
2023/10/11 08:35:07;;;;;;;;;;;22.50;53.40;;;;;;1545298;75;748;-63
2023/10/11 08:37:09;;;;;;;;;;;22.40;53.50;;;;;;1538523;75;1370;-70
2023/10/11 08:39:13;;;;;;;;;;;22.50;53.60;;;;;;1538775;74;800;-63
2023/10/11 08:41:15;;;;;;;;;;;22.40;53.00;;;;;;1541295;75;1771;-66
2023/10/11 08:43:17;;;;;;;;;;;22.40;53.30;;;;;;1536813;75;803;-67
2023/10/11 08:45:24;;;;;;;;;;;22.50;53.80;;;;;;1536131;75;627;-63
2023/10/11 08:47:26;;;;;;;;;;;22.40;53.70;;;;;;1533575;75;1048;-65
2023/10/11 08:49:28;;;;;;;;;;;22.50;53.90;;;;;;1544820;75;1947;-65
2023/10/11 08:51:36;;;;;;;;;;;22.50;54.00;;;;;;1541899;75;1504;-64
2023/10/11 08:53:35;;;;;;;;;;;22.50;54.00;;;;;;1525764;75;1463;-65
2023/10/11 08:55:40;;;;;;;;;;;22.50;54.10;;;;;;1542401;75;1500;-64
2023/10/11 08:57:47;;;;;;;;;;;22.50;54.20;;;;;;1540608;75;746;-64
2023/10/11 08:59:49;;;;;;;;;;;22.60;54.20;;;;;;1540117;75;1619;-65
2023/10/11 09:01:52;;;;;;;;;;;22.50;54.20;;;;;;1541970;75;761;-63
2023/10/11 09:04:14;;;;;;;;;;;22.50;54.30;;;;;;1544959;75;697;-64
2023/10/11 09:06:21;;;;;;;;;;;22.50;54.20;;;;;;1544148;75;1618;-67
2023/10/11 09:08:27;;;;;;;;;;;22.50;54.20;;;;;;1542364;75;1908;-65
2023/10/11 09:10:28;;;;;;;;;;;22.60;54.10;;;;;;1547911;75;1525;-65
2023/10/11 09:12:31;;;;;;;;;;;22.60;54.20;;;;;;1541689;75;697;-65
2023/10/11 09:14:34;;;;;;;;;;;22.60;54.20;;;;;;1538016;76;1398;-64
2023/10/11 09:16:36;;;;;;;;;;;22.60;54.20;;;;;;1500587;77;709;-66
2023/10/11 09:18:38;;;;;;;;;;;22.60;54.20;;;;;;1473351;79;1552;-64
2023/10/11 09:20:43;;;;;;;;;;;22.60;54.20;;;;;;1536784;75;1265;-65
2023/10/11 09:22:47;;;;;;;;;;;22.60;54.20;;;;;;1539518;75;726;-67
2023/10/11 09:24:51;;;;;;;;;;;22.60;54.20;;;;;;1542874;75;813;-66
2023/10/11 09:27:18;;;;;;;;;;;22.60;54.20;;;;;;1553514;75;1786;-64
2023/10/11 09:29:16;;;;;;;;;;;22.60;54.20;;;;;;1548924;75;1942;-65
2023/10/11 09:31:22;;;;;;;;;;;22.60;54.20;;;;;;1542718;75;2250;-65
2023/10/11 09:33:22;;;;;;;;;;;22.60;54.20;;;;;;1543156;75;1572;-64
2023/10/11 09:35:26;;;;;;;;;;;22.60;54.20;;;;;;1540078;75;738;-66
2023/10/11 09:37:28;;;;;;;;;;;22.60;54.10;;;;;;1545098;75;835;-65
2023/10/11 09:39:30;;;;;;;;;;;22.60;54.10;;;;;;1549190;75;679;-63
2023/10/11 09:41:38;;;;;;;;;;;22.70;54.20;;;;;;1541891;75;1154;-64
2023/10/11 09:43:37;;;;;;;;;;;22.60;54.10;;;;;;1540406;75;1575;-64
2023/10/11 09:45:53;;;;;;;;;;;22.60;54.20;;;;;;1543644;75;776;-65
2023/10/11 09:47:54;;;;;;;;;;;22.60;54.20;;;;;;1549115;75;1538;-64
2023/10/11 09:49:53;;;;;;;;;;;22.60;54.30;;;;;;1544032;75;1939;-64
2023/10/11 09:51:55;;;;;;;;;;;22.60;54.20;;;;;;1542650;75;752;-67
2023/10/11 09:54:07;;;;;;;;;;;22.60;54.20;;;;;;1536205;75;804;-65
2023/10/11 09:56:02;;;;;;;;;;;22.70;54.30;;;;;;1537695;75;1614;-64
2023/10/11 09:58:17;;;;;;;;;;;22.60;54.30;;;;;;1542944;75;1832;-65
2023/10/11 10:00:25;;;;;;;;;;;22.70;54.30;;;;;;1547430;75;1508;-65
2023/10/11 10:02:28;;;;;;;;;;;22.70;54.40;;;;;;1534910;75;1703;-66
2023/10/11 10:04:51;;;;;;;;;;;22.70;54.40;;;;;;1542155;75;764;-65
2023/10/11 10:07:10;;;;;;;;;;;22.70;54.40;;;;;;1544401;75;697;-65
2023/10/11 10:11:26;;;;;;;;;;;22.70;54.50;;;;;;1545016;75;1192;-64
2023/10/11 10:13:28;;;;;;;;;;;22.70;54.50;;;;;;1542010;75;757;-66
2023/10/11 10:15:36;;;;;;;;;;;22.60;54.40;;;;;;1546185;75;1484;-65
2023/10/11 10:17:34;;;;;;;;;;;22.70;54.40;;;;;;1547503;75;1590;-65
2023/10/11 10:19:39;;;;;;;;;;;22.60;54.30;;;;;;1539813;75;723;-65
2023/10/11 10:21:42;;;;;;;;;;;22.70;54.40;;;;;;1539585;75;1656;-67
2023/10/11 10:23:44;;;;;;;;;;;22.70;54.40;;;;;;1535149;75;896;-65
2023/10/11 10:25:48;;;;;;;;;;;22.70;54.30;;;;;;1547217;75;799;-64
2023/10/11 10:27:52;;;;;;;;;;;22.70;54.20;;;;;;1543200;75;737;-67
2023/10/11 10:29:59;;;;;;;;;;;22.70;54.20;;;;;;1540784;75;1925;-66
2023/10/11 10:32:06;;;;;;;;;;;22.70;54.20;;;;;;1541784;75;1640;-65
2023/10/11 10:34:13;;;;;;;;;;;22.80;54.30;;;;;;1552542;75;756;-66
2023/10/11 10:36:20;;;;;;;;;;;22.70;54.30;;;;;;1539853;75;698;-65
2023/10/11 10:38:22;;;;;;;;;;;22.70;54.20;;;;;;1538016;75;780;-68
2023/10/11 10:40:25;;;;;;;;;;;22.70;54.20;;;;;;1538731;75;1179;-65
2023/10/11 10:42:27;;;;;;;;;;;22.70;54.30;;;;;;1537546;75;748;-65
2023/10/11 10:44:29;;;;;;;;;;;22.70;54.20;;;;;;1543327;75;1216;-65
2023/10/11 10:46:31;;;;;;;;;;;22.70;54.30;;;;;;1540669;75;798;-66
2023/10/11 10:48:39;;;;;;;;;;;22.60;54.30;;;;;;1542893;75;1954;-65
2023/10/11 10:50:48;;;;;;;;;;;22.70;54.50;;;;;;1542183;75;1189;-65
2023/10/11 10:52:51;;;;;;;;;;;22.70;54.40;;;;;;1536616;75;771;-65
2023/10/11 10:55:01;;;;;;;;;;;22.60;54.30;;;;;;1542687;75;806;-66
2023/10/11 10:57:03;;;;;;;;;;;22.70;54.40;;;;;;1534728;75;1606;-66
2023/10/11 10:59:04;;;;;;;;;;;22.70;54.20;;;;;;1542206;75;1638;-66
2023/10/11 11:01:06;;;;;;;;;;;22.70;53.50;;;;;;1547644;75;1493;-63
2023/10/11 11:03:17;;;;;;;;;;;22.70;53.70;;;;;;1541474;75;1551;-65
2023/10/11 11:05:24;;;;;;;;;;;22.70;53.60;;;;;;1548067;75;1405;-67
2023/10/11 11:07:23;;;;;;;;;;;22.70;53.40;;;;;;1541517;75;1624;-66
2023/10/11 11:09:28;;;;;;;;;;;22.70;53.30;;;;;;1542687;75;1939;-66
2023/10/11 11:11:34;;;;;;;;;;;22.60;53.10;;;;;;1551306;75;1522;-68
2023/10/11 11:13:34;;;;;;;;;;;22.60;52.90;;;;;;1546490;74;1628;-64
2023/10/11 11:15:36;;;;;;;;;;;22.60;52.90;;;;;;1539619;75;1299;-65
2023/10/11 11:17:47;;;;;;;;;;;22.60;52.80;;;;;;1546239;75;1251;-68
2023/10/11 11:22:25;;;;;;;;;;;22.60;52.80;;;;;;1545222;75;1482;-64
2023/10/11 11:24:27;;;;;;;;;;;22.60;52.60;;;;;;1508419;77;1510;-65
2023/10/11 11:26:31;;;;;;;;;;;22.70;52.60;;;;;;1539451;76;1487;-66
2023/10/11 11:28:39;;;;;;;;;;;22.70;52.50;;;;;;1539054;75;1301;-65
2023/10/11 11:30:36;;;;;;;;;;;22.70;52.30;;;;;;1543451;75;1637;-65
2023/10/11 11:32:39;;;;;;;;;;;22.60;52.20;;;;;;1539053;75;737;-66
2023/10/11 11:35:09;;;;;;;;;;;22.60;52.30;;;;;;1545447;75;711;-65
2023/10/11 11:37:06;;;;;;;;;;;22.60;51.70;;;;;;1542342;75;1490;-65
2023/10/11 11:39:24;;;;;;;;;;;22.60;51.40;;;;;;1539590;75;822;-64
2023/10/11 11:41:21;;;;;;;;;;;22.70;51.30;;;;;;1539130;75;1820;-64
2023/10/11 11:43:24;;;;;;;;;;;22.70;50.90;;;;;;1543304;75;1824;-66
2023/10/11 11:45:29;;;;;;;;;;;22.60;50.70;;;;;;1543516;75;1934;-64
2023/10/11 11:47:29;;;;;;;;;;;22.70;50.60;;;;;;1546153;75;1668;-65
2023/10/11 11:49:36;;;;;;;;;;;22.50;50.50;;;;;;1536174;75;1935;-65
2023/10/11 11:51:37;;;;;;;;;;;22.60;50.30;;;;;;1541223;75;1306;-66
2023/10/11 11:53:38;;;;;;;;;;;22.60;50.50;;;;;;1540624;75;1639;-65
2023/10/11 11:55:41;;;;;;;;;;;22.50;50.30;;;;;;1544651;75;1563;-66
2023/10/11 11:57:43;;;;;;;;;;;22.60;50.30;;;;;;1543952;75;750;-65
2023/10/11 11:59:45;;;;;;;;;;;22.60;50.20;;;;;;1545884;75;753;-64
2023/10/11 12:01:53;;;;;;;;;;;22.60;49.60;;;;;;1540230;75;1110;-65
2023/10/11 12:03:55;;;;;;;;;;;22.60;49.80;;;;;;1548990;75;703;-67
2023/10/11 12:05:57;;;;;;;;;;;22.60;49.90;;;;;;1543456;75;677;-65
2023/10/11 12:07:59;;;;;;;;;;;22.60;49.40;;;;;;1541300;75;710;-65
2023/10/11 12:10:01;;;;;;;;;;;22.60;49.60;;;;;;1543936;75;1939;-65
2023/10/11 12:12:04;;;;;;;;;;;22.60;49.60;;;;;;1542442;75;734;-66
2023/10/11 12:14:10;;;;;;;;;;;22.60;49.30;;;;;;1548039;75;732;-67
2023/10/11 12:16:10;;;;;;;;;;;22.70;49.50;;;;;;1545401;75;2095;-65
2023/10/11 12:18:14;;;;;;;;;;;22.60;49.00;;;;;;1547897;75;752;-67
2023/10/11 12:20:19;;;;;;;;;;;22.60;49.00;;;;;;1540955;75;1541;-65
2023/10/11 12:22:22;;;;;;;;;;;22.60;48.90;;;;;;1544123;75;879;-65
2023/10/11 12:24:27;;;;;;;;;;;22.60;49.10;;;;;;1543542;75;1519;-64
2023/10/11 12:26:33;;;;;;;;;;;22.60;48.80;;;;;;1541822;75;687;-65
2023/10/11 12:28:37;;;;;;;;;;;22.60;48.60;;;;;;1534117;75;1440;-65
2023/10/11 12:30:36;;;;;;;;;;;22.60;48.80;;;;;;1549278;75;1923;-65
2023/10/11 12:32:38;;;;;;;;;;;22.60;48.70;;;;;;1544763;75;766;-65
2023/10/11 12:34:40;;;;;;;;;;;22.60;48.60;;;;;;1543495;75;769;-65
2023/10/11 12:36:45;;;;;;;;;;;22.60;48.60;;;;;;1543416;75;752;-67
2023/10/11 12:38:47;;;;;;;;;;;22.60;48.00;;;;;;1542419;75;1583;-63
2023/10/11 12:40:49;;;;;;;;;;;22.60;48.30;;;;;;1543207;75;1150;-65
2023/10/11 12:42:51;;;;;;;;;;;22.60;48.30;;;;;;1538909;75;751;-65
2023/10/11 12:44:53;;;;;;;;;;;22.60;48.10;;;;;;1542158;75;980;-65
2023/10/11 12:46:58;;;;;;;;;;;22.60;48.40;;;;;;1551092;75;698;-66
2023/10/11 12:49:00;;;;;;;;;;;22.50;48.40;;;;;;1545862;75;1627;-65
2023/10/11 12:51:05;;;;;;;;;;;22.60;48.10;;;;;;1540841;75;1960;-65
2023/10/11 12:53:10;;;;;;;;;;;22.60;48.00;;;;;;1533126;75;1674;-65
2023/10/11 12:55:12;;;;;;;;;;;22.60;48.10;;;;;;1537823;75;1652;-65
2023/10/11 12:57:15;;;;;;;;;;;22.60;48.00;;;;;;1542087;75;1661;-64